sensor_id;sensor_type;location;lat;lon;timestamp;pressure;altitude;pressure_sealevel;temperature;humidity
48606;BME280;8482;54.396;18.590;2023-11-25T00:00:48;99023.97;;;1.75;88.93
48606;BME280;8482;54.396;18.590;2023-11-25T00:03:15;99030.06;;;1.75;88.69
48606;BME280;8482;54.396;18.590;2023-11-25T00:05:41;99023.97;;;1.75;89.00
48606;BME280;8482;54.396;18.590;2023-11-25T00:08:07;99022.81;;;1.79;89.68
48606;BME280;8482;54.396;18.590;2023-11-25T00:10:34;99038.38;;;1.80;89.73
48606;BME280;8482;54.396;18.590;2023-11-25T00:13:01;99040.19;;;1.80;89.96
48606;BME280;8482;54.396;18.590;2023-11-25T00:15:27;99042.78;;;1.80;90.08
48606;BME280;8482;54.396;18.590;2023-11-25T00:17:55;99042.69;;;1.81;90.02
48606;BME280;8482;54.396;18.590;2023-11-25T00:20:22;99044.34;;;1.82;90.15
48606;BME280;8482;54.396;18.590;2023-11-25T00:22:48;99046.16;;;1.82;90.16
48606;BME280;8482;54.396;18.590;2023-11-25T00:25:14;99060.97;;;1.81;90.21
48606;BME280;8482;54.396;18.590;2023-11-25T00:27:42;99060.97;;;1.81;90.60
48606;BME280;8482;54.396;18.590;2023-11-25T00:30:08;99064.31;;;1.83;89.94
48606;BME280;8482;54.396;18.590;2023-11-25T00:32:34;99053.47;;;1.77;90.60
48606;BME280;8482;54.396;18.590;2023-11-25T00:35:04;99077.41;;;1.83;90.15
48606;BME280;8482;54.396;18.590;2023-11-25T00:37:35;99070.00;;;1.77;90.17
48606;BME280;8482;54.396;18.590;2023-11-25T00:40:01;99075.00;;;1.80;91.08
48606;BME280;8482;54.396;18.590;2023-11-25T00:42:31;99069.16;;;1.77;90.98
48606;BME280;8482;54.396;18.590;2023-11-25T00:44:56;99067.38;;;1.77;91.02
48606;BME280;8482;54.396;18.590;2023-11-25T00:47:22;99069.16;;;1.77;91.19
48606;BME280;8482;54.396;18.590;2023-11-25T00:49:49;99070.00;;;1.77;91.40
48606;BME280;8482;54.396;18.590;2023-11-25T00:52:16;99088.81;;;1.82;90.96
48606;BME280;8482;54.396;18.590;2023-11-25T00:54:43;99086.31;;;1.81;91.07
48606;BME280;8482;54.396;18.590;2023-11-25T00:57:09;99088.81;;;1.82;90.60
48606;BME280;8482;54.396;18.590;2023-11-25T00:59:34;99090.69;;;1.80;90.51
48606;BME280;8482;54.396;18.590;2023-11-25T01:02:00;99093.94;;;1.84;90.58
48606;BME280;8482;54.396;18.590;2023-11-25T01:04:26;99096.63;;;1.82;90.01
48606;BME280;8482;54.396;18.590;2023-11-25T01:06:52;99092.47;;;1.80;89.86
48606;BME280;8482;54.396;18.590;2023-11-25T01:09:18;99094.03;;;1.82;90.55
48606;BME280;8482;54.396;18.590;2023-11-25T01:11:46;99094.88;;;1.83;90.11
48606;BME280;8482;54.396;18.590;2023-11-25T01:14:12;99095.69;;;1.83;90.42
48606;BME280;8482;54.396;18.590;2023-11-25T01:16:38;99100.94;;;1.83;90.61
48606;BME280;8482;54.396;18.590;2023-11-25T01:19:07;99097.50;;;1.83;90.32
48606;BME280;8482;54.396;18.590;2023-11-25T01:21:33;99089.00;;;1.79;90.25
48606;BME280;8482;54.396;18.590;2023-11-25T01:23:59;99097.59;;;1.81;89.98
48606;BME280;8482;54.396;18.590;2023-11-25T01:26:25;99101.88;;;1.82;90.42
48606;BME280;8482;54.396;18.590;2023-11-25T01:28:51;99093.53;;;1.77;89.94
48606;BME280;8482;54.396;18.590;2023-11-25T01:31:18;99094.22;;;1.79;90.17
48606;BME280;8482;54.396;18.590;2023-11-25T01:33:43;99091.53;;;1.81;90.30
48606;BME280;8482;54.396;18.590;2023-11-25T01:36:09;99091.53;;;1.81;90.63
48606;BME280;8482;54.396;18.590;2023-11-25T01:38:39;99080.03;;;1.71;90.16
48606;BME280;8482;54.396;18.590;2023-11-25T01:41:05;99095.41;;;1.75;89.91
48606;BME280;8482;54.396;18.590;2023-11-25T01:43:32;99086.50;;;1.78;89.88
48606;BME280;8482;54.396;18.590;2023-11-25T01:46:01;99092.78;;;1.75;89.66
48606;BME280;8482;54.396;18.590;2023-11-25T01:48:28;99074.28;;;1.65;89.10
48606;BME280;8482;54.396;18.590;2023-11-25T01:50:58;99094.88;;;1.70;89.23
48606;BME280;8482;54.396;18.590;2023-11-25T01:53:26;99102.91;;;1.67;89.58
48606;BME280;8482;54.396;18.590;2023-11-25T01:55:55;99104.91;;;1.63;88.91
48606;BME280;8482;54.396;18.590;2023-11-25T01:58:21;99102.63;;;1.59;89.31
48606;BME280;8482;54.396;18.590;2023-11-25T02:00:49;99107.84;;;1.59;89.30
48606;BME280;8482;54.396;18.590;2023-11-25T02:03:16;99094.47;;;1.50;89.26
48606;BME280;8482;54.396;18.590;2023-11-25T02:05:46;99097.09;;;1.50;89.44
48606;BME280;8482;54.396;18.590;2023-11-25T02:08:15;99102.19;;;1.52;89.35
48606;BME280;8482;54.396;18.590;2023-11-25T02:10:40;99102.31;;;1.50;90.11
48606;BME280;8482;54.396;18.590;2023-11-25T02:13:06;99099.78;;;1.49;90.02
48606;BME280;8482;54.396;18.590;2023-11-25T02:15:37;99110.16;;;1.50;90.02
48606;BME280;8482;54.396;18.590;2023-11-25T02:18:04;99107.63;;;1.49;89.10
48606;BME280;8482;54.396;18.590;2023-11-25T02:20:34;99105.34;;;1.44;89.30
48606;BME280;8482;54.396;18.590;2023-11-25T02:23:16;99122.69;;;1.45;89.37
48606;BME280;8482;54.396;18.590;2023-11-25T02:25:46;99112.44;;;1.42;89.39
48606;BME280;8482;54.396;18.590;2023-11-25T02:28:16;99102.09;;;1.41;89.05
48606;BME280;8482;54.396;18.590;2023-11-25T02:30:48;99116.91;;;1.40;88.61
48606;BME280;8482;54.396;18.590;2023-11-25T02:33:15;99119.75;;;1.37;88.15
48606;BME280;8482;54.396;18.590;2023-11-25T02:35:44;99113.78;;;1.35;88.46
48606;BME280;8482;54.396;18.590;2023-11-25T02:38:16;99115.78;;;1.31;87.90
48606;BME280;8482;54.396;18.590;2023-11-25T02:40:45;99136.38;;;1.36;87.66
48606;BME280;8482;54.396;18.590;2023-11-25T02:43:12;99127.78;;;1.34;87.51
48606;BME280;8482;54.396;18.590;2023-11-25T02:45:39;99141.06;;;1.31;87.80
48606;BME280;8482;54.396;18.590;2023-11-25T02:48:06;99147.97;;;1.32;87.18
48606;BME280;8482;54.396;18.590;2023-11-25T02:50:32;99162.81;;;1.31;87.39
48606;BME280;8482;54.396;18.590;2023-11-25T02:53:01;99162.69;;;1.33;87.79
48606;BME280;8482;54.396;18.590;2023-11-25T02:55:27;99155.06;;;1.30;87.86
48606;BME280;8482;54.396;18.590;2023-11-25T02:57:53;99173.88;;;1.35;88.58
48606;BME280;8482;54.396;18.590;2023-11-25T03:00:19;99174.63;;;1.37;89.13
48606;BME280;8482;54.396;18.590;2023-11-25T03:02:48;99183.19;;;1.39;90.21
48606;BME280;8482;54.396;18.590;2023-11-25T03:05:16;99183.19;;;1.39;89.96
48606;BME280;8482;54.396;18.590;2023-11-25T03:07:42;99185.78;;;1.39;90.60
48606;BME280;8482;54.396;18.590;2023-11-25T03:10:08;99177.94;;;1.39;91.50
48606;BME280;8482;54.396;18.590;2023-11-25T03:12:35;99168.47;;;1.38;91.60
48606;BME280;8482;54.396;18.590;2023-11-25T03:15:01;99159.16;;;1.34;91.86
48606;BME280;8482;54.396;18.590;2023-11-25T03:17:28;99163.31;;;1.36;92.44
48606;BME280;8482;54.396;18.590;2023-11-25T03:19:54;99154.53;;;1.37;93.39
48606;BME280;8482;54.396;18.590;2023-11-25T03:22:20;99157.28;;;1.36;93.25
48606;BME280;8482;54.396;18.590;2023-11-25T03:24:47;99162.19;;;1.41;93.14
48606;BME280;8482;54.396;18.590;2023-11-25T03:27:14;99165.63;;;1.41;93.45
48606;BME280;8482;54.396;18.590;2023-11-25T03:29:41;99181.84;;;1.46;92.97
48606;BME280;8482;54.396;18.590;2023-11-25T03:32:07;99195.66;;;1.48;92.97
48606;BME280;8482;54.396;18.590;2023-11-25T03:34:33;99192.09;;;1.49;92.84
48606;BME280;8482;54.396;18.590;2023-11-25T03:36:59;99192.09;;;1.49;92.67
48606;BME280;8482;54.396;18.590;2023-11-25T03:39:24;99197.41;;;1.48;92.88
48606;BME280;8482;54.396;18.590;2023-11-25T03:41:52;99198.28;;;1.48;92.61
48606;BME280;8482;54.396;18.590;2023-11-25T03:44:18;99207.88;;;1.48;92.95
48606;BME280;8482;54.396;18.590;2023-11-25T03:46:44;99210.47;;;1.48;93.15
48606;BME280;8482;54.396;18.590;2023-11-25T03:49:09;99214.03;;;1.47;93.64
48606;BME280;8482;54.396;18.590;2023-11-25T03:51:36;99215.50;;;1.51;93.64
48606;BME280;8482;54.396;18.590;2023-11-25T03:54:02;99216.25;;;1.53;94.04
48606;BME280;8482;54.396;18.590;2023-11-25T03:56:27;99223.25;;;1.52;94.14
48606;BME280;8482;54.396;18.590;2023-11-25T03:58:53;99214.88;;;1.47;94.19
48606;BME280;8482;54.396;18.590;2023-11-25T04:01:20;99211.84;;;1.53;94.30
48606;BME280;8482;54.396;18.590;2023-11-25T04:03:46;99208.41;;;1.53;94.17
48606;BME280;8482;54.396;18.590;2023-11-25T04:06:13;99217.94;;;1.54;94.49
48606;BME280;8482;54.396;18.590;2023-11-25T04:08:39;99199.84;;;1.51;94.64
48606;BME280;8482;54.396;18.590;2023-11-25T04:11:05;99203.38;;;1.50;94.52
48606;BME280;8482;54.396;18.590;2023-11-25T04:13:32;99219.50;;;1.57;94.92
48606;BME280;8482;54.396;18.590;2023-11-25T04:15:58;99215.94;;;1.58;94.92
48606;BME280;8482;54.396;18.590;2023-11-25T04:18:26;99222.84;;;1.59;95.20
48606;BME280;8482;54.396;18.590;2023-11-25T04:20:52;99222.72;;;1.60;94.52
48606;BME280;8482;54.396;18.590;2023-11-25T04:23:19;99220.22;;;1.59;94.76
48606;BME280;8482;54.396;18.590;2023-11-25T04:25:44;99240.53;;;1.68;94.56
48606;BME280;8482;54.396;18.590;2023-11-25T04:28:13;99237.84;;;1.70;93.89
48606;BME280;8482;54.396;18.590;2023-11-25T04:30:40;99253.50;;;1.70;93.71
48606;BME280;8482;54.396;18.590;2023-11-25T04:33:09;99244.94;;;1.67;94.32
48606;BME280;8482;54.396;18.590;2023-11-25T04:35:36;99256.94;;;1.70;93.91
48606;BME280;8482;54.396;18.590;2023-11-25T04:38:03;99252.28;;;1.75;93.56
48606;BME280;8482;54.396;18.590;2023-11-25T04:40:29;99240.88;;;1.76;93.72
48606;BME280;8482;54.396;18.590;2023-11-25T04:42:55;99249.53;;;1.77;93.45
48606;BME280;8482;54.396;18.590;2023-11-25T04:45:20;99261.78;;;1.76;93.58
48606;BME280;8482;54.396;18.590;2023-11-25T04:47:48;99247.03;;;1.75;93.71
48606;BME280;8482;54.396;18.590;2023-11-25T04:50:17;99253.09;;;1.76;93.39
48606;BME280;8482;54.396;18.590;2023-11-25T04:52:43;99265.22;;;1.77;93.49
48606;BME280;8482;54.396;18.590;2023-11-25T04:55:11;99270.38;;;1.78;93.16
48606;BME280;8482;54.396;18.590;2023-11-25T04:57:40;99270.38;;;1.78;92.67
48606;BME280;8482;54.396;18.590;2023-11-25T05:00:08;99273.06;;;1.77;92.45
48606;BME280;8482;54.396;18.590;2023-11-25T05:02:39;99280.91;;;1.77;92.13
48606;BME280;8482;54.396;18.590;2023-11-25T05:05:06;99280.84;;;1.78;91.76
48606;BME280;8482;54.396;18.590;2023-11-25T05:07:33;99281.84;;;1.76;91.74
48606;BME280;8482;54.396;18.590;2023-11-25T05:10:00;99293.06;;;1.78;91.37
48606;BME280;8482;54.396;18.590;2023-11-25T05:12:27;99295.66;;;1.78;91.36
48606;BME280;8482;54.396;18.590;2023-11-25T05:14:53;99297.34;;;1.79;91.34
48606;BME280;8482;54.396;18.590;2023-11-25T05:17:21;99306.00;;;1.79;91.27
48606;BME280;8482;54.396;18.590;2023-11-25T05:19:47;99301.75;;;1.78;91.50
48606;BME280;8482;54.396;18.590;2023-11-25T05:22:12;99311.97;;;1.81;91.41
48606;BME280;8482;54.396;18.590;2023-11-25T05:24:38;99310.31;;;1.80;91.66
48606;BME280;8482;54.396;18.590;2023-11-25T05:27:04;99311.97;;;1.81;91.93
48606;BME280;8482;54.396;18.590;2023-11-25T05:29:30;99312.72;;;1.83;91.85
48606;BME280;8482;54.396;18.590;2023-11-25T05:31:56;99327.59;;;1.83;91.69
48606;BME280;8482;54.396;18.590;2023-11-25T05:34:26;99321.81;;;1.78;91.49
48606;BME280;8482;54.396;18.590;2023-11-25T05:36:52;99322.44;;;1.81;91.76
48606;BME280;8482;54.396;18.590;2023-11-25T05:39:18;99333.75;;;1.82;91.34
48606;BME280;8482;54.396;18.590;2023-11-25T05:41:47;99327.66;;;1.81;91.79
48606;BME280;8482;54.396;18.590;2023-11-25T05:44:15;99321.00;;;1.77;91.70
48606;BME280;8482;54.396;18.590;2023-11-25T05:46:41;99330.41;;;1.80;91.71
48606;BME280;8482;54.396;18.590;2023-11-25T05:49:07;99341.91;;;1.77;91.55
48606;BME280;8482;54.396;18.590;2023-11-25T05:51:38;99350.47;;;1.79;91.77
48606;BME280;8482;54.396;18.590;2023-11-25T05:54:07;99350.38;;;1.81;91.32
48606;BME280;8482;54.396;18.590;2023-11-25T05:56:33;99336.22;;;1.71;90.77
48606;BME280;8482;54.396;18.590;2023-11-25T05:58:59;99367.63;;;1.83;90.90
48606;BME280;8482;54.396;18.590;2023-11-25T06:01:26;99368.50;;;1.84;91.15
48606;BME280;8482;54.396;18.590;2023-11-25T06:03:52;99376.13;;;1.87;91.17
48606;BME280;8482;54.396;18.590;2023-11-25T06:06:22;99363.91;;;1.88;90.98
48606;BME280;8482;54.396;18.590;2023-11-25T06:08:49;99363.16;;;1.86;91.11
48606;BME280;8482;54.396;18.590;2023-11-25T06:11:22;99369.94;;;1.88;90.77
48606;BME280;8482;54.396;18.590;2023-11-25T06:13:49;99373.63;;;1.86;90.53
48606;BME280;8482;54.396;18.590;2023-11-25T06:16:15;99378.09;;;1.83;90.08
48606;BME280;8482;54.396;18.590;2023-11-25T06:18:41;99374.84;;;1.80;90.79
48606;BME280;8482;54.396;18.590;2023-11-25T06:21:07;99385.50;;;1.77;90.28
48606;BME280;8482;54.396;18.590;2023-11-25T06:23:34;99397.75;;;1.76;90.16
48606;BME280;8482;54.396;18.590;2023-11-25T06:25:59;99399.50;;;1.76;90.72
48606;BME280;8482;54.396;18.590;2023-11-25T06:28:27;99396.81;;;1.77;90.42
48606;BME280;8482;54.396;18.590;2023-11-25T06:30:54;99392.50;;;1.76;90.76
48606;BME280;8482;54.396;18.590;2023-11-25T06:33:23;99382.84;;;1.64;90.46
48606;BME280;8482;54.396;18.590;2023-11-25T06:35:52;99395.22;;;1.75;90.42
48606;BME280;8482;54.396;18.590;2023-11-25T06:38:22;99402.03;;;1.77;90.65
48606;BME280;8482;54.396;18.590;2023-11-25T06:40:49;99401.09;;;1.78;90.20
48606;BME280;8482;54.396;18.590;2023-11-25T06:43:15;99412.38;;;1.79;90.50
48606;BME280;8482;54.396;18.590;2023-11-25T06:45:42;99421.06;;;1.79;90.52
48606;BME280;8482;54.396;18.590;2023-11-25T06:48:10;99426.22;;;1.81;90.78
48606;BME280;8482;54.396;18.590;2023-11-25T06:50:37;99404.53;;;1.79;90.95
48606;BME280;8482;54.396;18.590;2023-11-25T06:53:03;99413.03;;;1.82;90.31
48606;BME280;8482;54.396;18.590;2023-11-25T06:55:32;99420.88;;;1.82;90.29
48606;BME280;8482;54.396;18.590;2023-11-25T06:57:58;99415.75;;;1.81;90.54
48606;BME280;8482;54.396;18.590;2023-11-25T07:00:24;99421.91;;;1.80;89.92
48606;BME280;8482;54.396;18.590;2023-11-25T07:02:49;99417.63;;;1.79;89.92
48606;BME280;8482;54.396;18.590;2023-11-25T07:05:15;99417.72;;;1.77;89.99
48606;BME280;8482;54.396;18.590;2023-11-25T07:07:41;99428.25;;;1.76;90.36
48606;BME280;8482;54.396;18.590;2023-11-25T07:10:08;99418.75;;;1.75;90.13
48606;BME280;8482;54.396;18.590;2023-11-25T07:12:40;99413.81;;;1.70;89.30
48606;BME280;8482;54.396;18.590;2023-11-25T07:15:07;99417.28;;;1.71;89.65
48606;BME280;8482;54.396;18.590;2023-11-25T07:17:34;99417.28;;;1.71;89.15
48606;BME280;8482;54.396;18.590;2023-11-25T07:20:04;99426.25;;;1.66;89.58
48606;BME280;8482;54.396;18.590;2023-11-25T07:22:31;99440.13;;;1.67;89.34
48606;BME280;8482;54.396;18.590;2023-11-25T07:24:58;99444.34;;;1.70;89.59
48606;BME280;8482;54.396;18.590;2023-11-25T07:27:23;99435.56;;;1.71;89.81
48606;BME280;8482;54.396;18.590;2023-11-25T07:29:49;99439.94;;;1.70;90.03
48606;BME280;8482;54.396;18.590;2023-11-25T07:32:15;99438.84;;;1.74;89.89
48606;BME280;8482;54.396;18.590;2023-11-25T07:34:41;99432.66;;;1.75;90.30
48606;BME280;8482;54.396;18.590;2023-11-25T07:37:07;99446.56;;;1.76;89.96
48606;BME280;8482;54.396;18.590;2023-11-25T07:39:34;99456.19;;;1.75;90.46
48606;BME280;8482;54.396;18.590;2023-11-25T07:42:00;99451.91;;;1.74;90.27
48606;BME280;8482;54.396;18.590;2023-11-25T07:44:30;99467.59;;;1.74;89.92
48606;BME280;8482;54.396;18.590;2023-11-25T07:46:59;99476.25;;;1.75;89.68
48606;BME280;8482;54.396;18.590;2023-11-25T07:49:27;99477.13;;;1.75;89.22
48606;BME280;8482;54.396;18.590;2023-11-25T07:51:55;99483.91;;;1.78;88.93
48606;BME280;8482;54.396;18.590;2023-11-25T07:54:21;99483.81;;;1.79;89.23
48606;BME280;8482;54.396;18.590;2023-11-25T07:56:47;99457.88;;;1.76;89.47
48606;BME280;8482;54.396;18.590;2023-11-25T07:59:17;99469.53;;;1.85;89.49
48606;BME280;8482;54.396;18.590;2023-11-25T08:01:44;99476.41;;;1.86;89.25
48606;BME280;8482;54.396;18.590;2023-11-25T08:04:09;99472.03;;;1.87;88.76
48606;BME280;8482;54.396;18.590;2023-11-25T08:06:36;99473.09;;;1.84;89.22
48606;BME280;8482;54.396;18.590;2023-11-25T08:09:02;99468.69;;;1.84;88.95
48606;BME280;8482;54.396;18.590;2023-11-25T08:11:28;99464.38;;;1.83;88.78
48606;BME280;8482;54.396;18.590;2023-11-25T08:13:55;99462.63;;;1.84;88.99
48606;BME280;8482;54.396;18.590;2023-11-25T08:16:21;99469.72;;;1.82;88.48
48606;BME280;8482;54.396;18.590;2023-11-25T08:18:47;99468.88;;;1.81;88.50
48606;BME280;8482;54.396;18.590;2023-11-25T08:21:14;99477.75;;;1.79;88.25
48606;BME280;8482;54.396;18.590;2023-11-25T08:23:42;99475.03;;;1.80;87.90
48606;BME280;8482;54.396;18.590;2023-11-25T08:26:37;99477.38;;;1.85;88.62
48606;BME280;8482;54.396;18.590;2023-11-25T08:29:03;99485.00;;;1.88;88.37
48606;BME280;8482;54.396;18.590;2023-11-25T08:31:29;99504.69;;;1.94;87.94
48606;BME280;8482;54.396;18.590;2023-11-25T08:33:55;99505.25;;;1.99;88.10
48606;BME280;8482;54.396;18.590;2023-11-25T08:36:20;99509.09;;;2.08;87.97
48606;BME280;8482;54.396;18.590;2023-11-25T08:38:46;99517.28;;;2.16;87.97
48606;BME280;8482;54.396;18.590;2023-11-25T08:41:15;99519.50;;;2.22;87.09
48606;BME280;8482;54.396;18.590;2023-11-25T08:43:42;99518.28;;;2.28;87.29
48606;BME280;8482;54.396;18.590;2023-11-25T08:46:12;99510.94;;;2.33;86.98
48606;BME280;8482;54.396;18.590;2023-11-25T08:48:39;99515.16;;;2.36;86.80
48606;BME280;8482;54.396;18.590;2023-11-25T08:51:08;99520.41;;;2.36;87.17
48606;BME280;8482;54.396;18.590;2023-11-25T08:53:39;99508.88;;;2.38;87.04
48606;BME280;8482;54.396;18.590;2023-11-25T08:56:05;99495.78;;;2.38;87.12
48606;BME280;8482;54.396;18.590;2023-11-25T08:58:33;99505.13;;;2.42;86.95
48606;BME280;8482;54.396;18.590;2023-11-25T09:00:58;99502.41;;;2.44;87.07
48606;BME280;8482;54.396;18.590;2023-11-25T09:03:24;99516.25;;;2.46;86.93
48606;BME280;8482;54.396;18.590;2023-11-25T09:05:50;99522.31;;;2.47;87.11
48606;BME280;8482;54.396;18.590;2023-11-25T09:08:16;99525.78;;;2.47;86.53
48606;BME280;8482;54.396;18.590;2023-11-25T09:10:43;99527.34;;;2.50;87.02
48606;BME280;8482;54.396;18.590;2023-11-25T09:13:09;99524.19;;;2.44;86.37
48606;BME280;8482;54.396;18.590;2023-11-25T09:15:36;99529.97;;;2.50;87.15
48606;BME280;8482;54.396;18.590;2023-11-25T09:18:02;99530.59;;;2.53;87.10
48606;BME280;8482;54.396;18.590;2023-11-25T09:20:28;99530.50;;;2.55;86.82
48606;BME280;8482;54.396;18.590;2023-11-25T09:22:55;99528.53;;;2.58;86.86
48606;BME280;8482;54.396;18.590;2023-11-25T09:25:21;99537.88;;;2.63;87.24
48606;BME280;8482;54.396;18.590;2023-11-25T09:27:47;99535.88;;;2.66;86.40
48606;BME280;8482;54.396;18.590;2023-11-25T09:30:14;99528.78;;;2.68;86.41
48606;BME280;8482;54.396;18.590;2023-11-25T09:32:44;99530.16;;;2.74;85.72
48606;BME280;8482;54.396;18.590;2023-11-25T09:35:11;99530.78;;;2.78;85.68
48606;BME280;8482;54.396;18.590;2023-11-25T09:37:42;99533.09;;;2.82;85.56
48606;BME280;8482;54.396;18.590;2023-11-25T09:40:11;99532.88;;;2.85;85.19
48606;BME280;8482;54.396;18.590;2023-11-25T09:42:46;99520.63;;;2.86;84.64
48606;BME280;8482;54.396;18.590;2023-11-25T09:45:13;99529.22;;;2.88;84.07
48606;BME280;8482;54.396;18.590;2023-11-25T09:47:42;99529.84;;;2.91;84.09
48606;BME280;8482;54.396;18.590;2023-11-25T09:50:12;99545.38;;;2.95;83.96
48606;BME280;8482;54.396;18.590;2023-11-25T09:52:52;99542.84;;;2.93;84.00
48606;BME280;8482;54.396;18.590;2023-11-25T09:55:21;99552.19;;;2.97;83.64
48606;BME280;8482;54.396;18.590;2023-11-25T09:57:58;99557.75;;;3.05;83.23
48606;BME280;8482;54.396;18.590;2023-11-25T10:00:26;99558.19;;;3.12;82.80
48606;BME280;8482;54.396;18.590;2023-11-25T10:02:57;99565.63;;;3.18;82.79
48606;BME280;8482;54.396;18.590;2023-11-25T10:05:23;99564.91;;;3.29;82.36
48606;BME280;8482;54.396;18.590;2023-11-25T10:07:49;99563.03;;;3.31;81.24
48606;BME280;8482;54.396;18.590;2023-11-25T10:10:14;99560.09;;;3.36;81.08
48606;BME280;8482;54.396;18.590;2023-11-25T10:12:52;99571.31;;;3.38;81.03
48606;BME280;8482;54.396;18.590;2023-11-25T10:15:18;99573.94;;;3.38;80.29
48606;BME280;8482;54.396;18.590;2023-11-25T10:17:44;99571.44;;;3.36;80.31
48606;BME280;8482;54.396;18.590;2023-11-25T10:20:11;99572.44;;;3.34;79.86
48606;BME280;8482;54.396;18.590;2023-11-25T10:22:50;99565.84;;;3.28;79.90
48606;BME280;8482;54.396;18.590;2023-11-25T10:25:20;99579.16;;;3.25;79.67
48606;BME280;8482;54.396;18.590;2023-11-25T10:27:47;99578.53;;;3.21;80.10
48606;BME280;8482;54.396;18.590;2023-11-25T10:30:14;99572.78;;;3.16;80.20
48606;BME280;8482;54.396;18.590;2023-11-25T10:32:41;99580.41;;;3.19;80.45
48606;BME280;8482;54.396;18.590;2023-11-25T10:35:08;99579.69;;;3.17;80.25
48606;BME280;8482;54.396;18.590;2023-11-25T10:37:39;99569.72;;;3.22;80.36
48606;BME280;8482;54.396;18.590;2023-11-25T10:40:10;99581.06;;;3.23;80.69
48606;BME280;8482;54.396;18.590;2023-11-25T10:42:41;99574.22;;;3.20;79.82
48606;BME280;8482;54.396;18.590;2023-11-25T10:45:19;99580.94;;;3.25;80.71
48606;BME280;8482;54.396;18.590;2023-11-25T10:47:47;99569.59;;;3.11;80.35
48606;BME280;8482;54.396;18.590;2023-11-25T10:50:13;99586.38;;;3.21;80.29
48606;BME280;8482;54.396;18.590;2023-11-25T10:52:43;99589.88;;;3.22;80.11
48606;BME280;8482;54.396;18.590;2023-11-25T10:55:10;99584.69;;;3.20;80.65
48606;BME280;8482;54.396;18.590;2023-11-25T10:57:36;99589.94;;;3.20;80.24
48606;BME280;8482;54.396;18.590;2023-11-25T11:00:03;99590.88;;;3.19;81.26
48606;BME280;8482;54.396;18.590;2023-11-25T11:02:51;99590.88;;;3.19;80.53
48606;BME280;8482;54.396;18.590;2023-11-25T11:05:55;99595.31;;;3.19;79.99
48606;BME280;8482;54.396;18.590;2023-11-25T11:08:39;99596.25;;;3.18;80.37
48606;BME280;8482;54.396;18.590;2023-11-25T11:11:16;99598.66;;;3.21;80.54
48606;BME280;8482;54.396;18.590;2023-11-25T11:13:58;99600.34;;;3.22;80.53
48606;BME280;8482;54.396;18.590;2023-11-25T11:17:10;99600.22;;;3.24;80.68
48606;BME280;8482;54.396;18.590;2023-11-25T11:19:42;99593.94;;;3.26;80.76
48606;BME280;8482;54.396;18.590;2023-11-25T11:22:11;99592.25;;;3.25;79.71
48606;BME280;8482;54.396;18.590;2023-11-25T11:30:31;99595.22;;;3.33;79.46
48606;BME280;8482;54.396;18.590;2023-11-25T11:33:00;99583.06;;;3.32;79.06
48606;BME280;8482;54.396;18.590;2023-11-25T11:35:37;99593.84;;;3.41;78.74
48606;BME280;8482;54.396;18.590;2023-11-25T11:38:24;99593.66;;;3.44;78.75
48606;BME280;8482;54.396;18.590;2023-11-25T11:43:32;99599.94;;;3.54;77.63
48606;BME280;8482;54.396;18.590;2023-11-25T11:45:58;99602.16;;;3.60;77.80
48606;BME280;8482;54.396;18.590;2023-11-25T11:48:25;99594.09;;;3.63;77.32
48606;BME280;8482;54.396;18.590;2023-11-25T11:50:51;99605.81;;;3.71;76.79
48606;BME280;8482;54.396;18.590;2023-11-25T11:53:21;99603.63;;;3.77;76.10
48606;BME280;8482;54.396;18.590;2023-11-25T11:55:55;99600.66;;;3.82;75.25
48606;BME280;8482;54.396;18.590;2023-11-25T11:58:26;99598.66;;;3.86;75.32
48606;BME280;8482;54.396;18.590;2023-11-25T12:03:30;99591.31;;;3.91;74.19
48606;BME280;8482;54.396;18.590;2023-11-25T12:05:56;99602.63;;;4.04;74.31
48606;BME280;8482;54.396;18.590;2023-11-25T12:08:23;99602.31;;;4.09;73.62
48606;BME280;8482;54.396;18.590;2023-11-25T12:10:51;99603.56;;;4.16;72.62
48606;BME280;8482;54.396;18.590;2023-11-25T12:13:32;99592.56;;;4.11;72.06
48606;BME280;8482;54.396;18.590;2023-11-25T12:15:59;99616.25;;;4.22;72.12
48606;BME280;8482;54.396;18.590;2023-11-25T12:18:31;99618.66;;;4.25;71.14
48606;BME280;8482;54.396;18.590;2023-11-25T12:20:58;99609.94;;;4.25;70.49
48606;BME280;8482;54.396;18.590;2023-11-25T12:23:31;99621.16;;;4.27;70.86
48606;BME280;8482;54.396;18.590;2023-11-25T12:25:57;99608.78;;;4.29;70.22
48606;BME280;8482;54.396;18.590;2023-11-25T12:28:24;99611.72;;;4.24;69.75
48606;BME280;8482;54.396;18.590;2023-11-25T12:30:53;99626.13;;;4.19;68.92
48606;BME280;8482;54.396;18.590;2023-11-25T12:33:19;99621.31;;;4.12;68.53
48606;BME280;8482;54.396;18.590;2023-11-25T12:35:46;99620.06;;;4.05;69.20
48606;BME280;8482;54.396;18.590;2023-11-25T21:36:43;100094.34;;;0.86;80.99
48606;BME280;8482;54.396;18.590;2023-11-25T21:39:11;100088.19;;;0.87;81.05
48606;BME280;8482;54.396;18.590;2023-11-25T21:41:37;100095.25;;;0.85;81.17
48606;BME280;8482;54.396;18.590;2023-11-25T21:44:03;100084.91;;;0.83;81.75
48606;BME280;8482;54.396;18.590;2023-11-25T21:46:29;100097.94;;;0.83;81.72
48606;BME280;8482;54.396;18.590;2023-11-25T21:48:55;100095.34;;;0.83;81.28
48606;BME280;8482;54.396;18.590;2023-11-25T21:51:21;100097.03;;;0.84;81.78
48606;BME280;8482;54.396;18.590;2023-11-25T21:53:47;100090.16;;;0.82;81.03
48606;BME280;8482;54.396;18.590;2023-11-25T21:56:16;100097.19;;;0.81;80.85
48606;BME280;8482;54.396;18.590;2023-11-25T21:58:43;100112.06;;;0.79;80.47
48606;BME280;8482;54.396;18.590;2023-11-25T22:01:09;100106.97;;;0.76;80.26
48606;BME280;8482;54.396;18.590;2023-11-25T22:03:38;100118.34;;;0.75;80.17
48606;BME280;8482;54.396;18.590;2023-11-25T22:06:04;100118.34;;;0.75;80.62
48606;BME280;8482;54.396;18.590;2023-11-25T22:08:32;100121.69;;;0.79;80.71
48606;BME280;8482;54.396;18.590;2023-11-25T22:10:58;100129.28;;;0.83;81.52
48606;BME280;8482;54.396;18.590;2023-11-25T22:13:24;100129.06;;;0.88;81.65
48606;BME280;8482;54.396;18.590;2023-11-25T22:15:50;100124.53;;;0.91;81.89
48606;BME280;8482;54.396;18.590;2023-11-25T22:18:16;100123.53;;;0.94;82.07
48606;BME280;8482;54.396;18.590;2023-11-25T22:20:42;100121.63;;;0.98;82.78
48606;BME280;8482;54.396;18.590;2023-11-25T22:23:07;100120.72;;;0.99;82.78